KLGC/LGC METAR and TAF weather

Enter ICAO airport designator
Station Type Date Time Source
KLGC METAR 2020/03/28 09:15 UTC NOAA

KLGC 280915Z AUTO 23003KT 10SM OVC008 19/19 A2998 RMK AO2 T01900185


Station Type Date Time Source
KLGC Decoded METAR 2020/03/28 09:15 UTC NOAA

La Grange, Callaway Airport, GA, United States (KLGC) 33-00-32N 085-04-21W
Mar 28, 2020 - 05:15 AM EDT / 2020.03.28 0915 UTC
Wind: from the SW (230 degrees) at 3 MPH (3 KT):0
Visibility: 10 mile(s):0
Sky conditions: overcast
Temperature: 66.2 F (19.0 C)
Dew Point: 65.3 F (18.5 C)
Relative Humidity: 96%
Pressure (altimeter): 29.98 in. Hg (1015 hPa)
ob: KLGC 280915Z AUTO 23003KT 10SM OVC008 19/19 A2998 RMK AO2 T01900185
cycle: 9

Station Type Date Time Source
KLGC TAF UTC NOAA

Error!

Example: see airport list